Flight Track Log - Related Links

Times and Time Zones

All times are in EDT time to prevent confusion due to time zone crossing. See the EJA102 flight status page for this flight to view local times or setup timezone preferences in your user account.

Time Position Orientation Groundspeed Altitude Reporting Facility
EDT Latitude Longitude Course Direction KTS MPH feet Rate Location/Type
Fri 01:28:31 PM 40.3936 -77.1836 183° South 410 472 13,000  Level New York Center
Fri 01:29:32 PM 40.2722 -77.1914 183° South 410 472 13,000 34 Level New York Center
Fri 01:31:30 PM 40.0500 -77.2000 190° South 404 465 13,100  Climbing Potomac TRACON
Fri 01:32:30 PM 39.9333 -77.2167 186° South 399 459 13,000  Descending Potomac TRACON
Fri 01:33:30 PM 39.8333 -77.2167 180° South 371 427 13,100 -595 Climbing Potomac TRACON
Fri 01:34:31 PM 39.7333 -77.2167 180° South 352 405 11,800 -1,488 Descending Potomac TRACON
Fri 01:35:31 PM 39.6500 -77.2167 180° South 323 372 10,100 -900 Descending Potomac TRACON
Fri 01:36:31 PM 39.6167 -77.3000 243° Southwest 304 350 10,000 -286 Descending Potomac TRACON
Fri 01:37:37 PM 39.5500 -77.3667 218° Southwest 314 361 9,500 -1,048 Descending Potomac TRACON
Fri 01:38:37 PM 39.4667 -77.3667 180° South 319 367 7,800 -1,488 Descending Potomac TRACON
Fri 01:39:38 PM 39.3833 -77.3667 180° South 302 348 6,500 -1,190 Descending Potomac TRACON
Fri 01:40:38 PM 39.3000 -77.3667 180° South 293 337 5,400 -714 Descending Potomac TRACON
Fri 01:41:44 PM 39.2000 -77.3667 180° South 279 321 5,000 -200 Descending Potomac TRACON
Fri 01:42:38 PM 39.1333 -77.3667 180° South 279 321 5,000 -500 Level Potomac TRACON
Fri 01:43:44 PM 39.0500 -77.3500 171° South 276 318 4,000 -476 Descending Potomac TRACON
Fri 01:44:44 PM 38.9667 -77.3500 180° South 280 322 4,000  Level Potomac TRACON
Fri 01:45:44 PM 38.9000 -77.3500 180° South 242 278 4,000  Level Potomac TRACON
Fri 01:46:45 PM 38.8333 -77.3667 191° South 212 244 4,000 -378 Level Potomac TRACON
Fri 01:47:51 PM 38.8000 -77.4000 218° Southwest 211 243 3,200 -810 Descending Potomac TRACON
Fri 01:48:51 PM 38.8333 -77.4333 322° Northwest 161 185 2,300 -947 Descending Potomac TRACON
Fri 01:49:45 PM 38.8667 -77.4333 360° North 137 158 1,400 -842 Descending Potomac TRACON
Fri 01:50:45 PM 38.9000 -77.4333 360° North 117 135 700 -700 Descending Potomac TRACON
Fri 01:52:00 PM 38.9333 -77.4500 349° North  Level FlightAware Approximate
Fri 01:59:00 PM 38.9474 -77.4599 349° North  Level Estimated
Fri 02:00:00 PM 38.9474 -77.4599 349° North  Level Estimated

Login

Don't have an account? Register now (free) for customized features, flight alerts, and more!